Time;durP1;ratioP1;P1;durP2;ratioP2;P2;SDS_P1;SDS_P2;PMS_P1;PMS_P2;Temp;Humidity;BMP_temperature;BMP_pressure;BME280_temperature;BME280_humidity;BME280_pressure;Samples;Min_cycle;Max_cycle;Signal;HPM_P1;HPM_P2
2022/08/08 00:00:18;;;;;;;;;;;19.60;62.70;;;;;;5104808;28;19912;-75
2022/08/08 00:02:51;;;;;;;;;;;19.60;62.80;;;;;;5098305;28;19916;-75
2022/08/08 00:05:27;;;;;;;;;;;19.60;62.90;;;;;;5099190;28;19923;-75
2022/08/08 00:07:56;;;;;;;;;;;19.60;63.00;;;;;;5098539;28;19961;-75
2022/08/08 00:10:31;;;;;;;;;;;19.60;63.00;;;;;;5096533;28;19923;-67
2022/08/08 00:12:56;;;;;;;;;;;19.60;63.30;;;;;;5101301;27;20399;-75
2022/08/08 00:15:24;;;;;;;;;;;19.60;63.20;;;;;;5102248;28;20011;-75
2022/08/08 00:17:52;;;;;;;;;;;19.50;63.30;;;;;;5104438;28;19954;-75
2022/08/08 00:20:25;;;;;;;;;;;19.50;63.30;;;;;;5103146;28;19939;-76
2022/08/08 00:22:53;;;;;;;;;;;19.50;63.40;;;;;;5101733;28;19916;-76
2022/08/08 00:25:18;;;;;;;;;;;19.50;63.40;;;;;;5101352;28;19988;-67
2022/08/08 00:27:46;;;;;;;;;;;19.50;63.50;;;;;;5101995;28;19920;-69
2022/08/08 00:30:12;;;;;;;;;;;19.40;63.50;;;;;;5103211;28;19912;-76
2022/08/08 00:32:41;;;;;;;;;;;19.40;63.60;;;;;;5096177;28;20395;-76
2022/08/08 00:35:21;;;;;;;;;;;19.40;63.60;;;;;;5103956;28;20617;-76
2022/08/08 00:37:56;;;;;;;;;;;19.40;63.80;;;;;;5094343;28;20424;-76
2022/08/08 00:40:34;;;;;;;;;;;19.30;63.90;;;;;;5102178;28;19911;-77
2022/08/08 00:43:08;;;;;;;;;;;19.30;64.00;;;;;;5101317;28;20515;-76
2022/08/08 00:45:34;;;;;;;;;;;19.30;64.10;;;;;;5099321;28;19984;-75
2022/08/08 00:48:05;;;;;;;;;;;19.30;64.00;;;;;;5101024;28;20091;-76
2022/08/08 00:50:34;;;;;;;;;;;19.20;64.00;;;;;;5098528;28;19912;-76
2022/08/08 00:53:11;;;;;;;;;;;19.30;64.00;;;;;;5103937;28;19939;-67
2022/08/08 00:55:41;;;;;;;;;;;19.30;64.20;;;;;;5098098;28;19923;-74
2022/08/08 00:58:18;;;;;;;;;;;19.20;64.30;;;;;;5102612;28;19923;-66
2022/08/08 01:00:56;;;;;;;;;;;19.20;64.30;;;;;;5106168;28;19911;-75
2022/08/08 01:03:24;;;;;;;;;;;19.20;64.30;;;;;;5101725;28;19912;-67
2022/08/08 01:06:08;;;;;;;;;;;19.10;64.30;;;;;;5100998;28;19951;-70
2022/08/08 01:08:52;;;;;;;;;;;19.10;64.40;;;;;;5102839;28;19919;-67
2022/08/08 01:11:36;;;;;;;;;;;19.10;65.10;;;;;;5101949;28;19919;-67
2022/08/08 01:14:02;;;;;;;;;;;19.00;64.50;;;;;;5098409;28;19980;-67
2022/08/08 01:16:46;;;;;;;;;;;19.00;64.60;;;;;;5099212;28;19920;-68
2022/08/08 01:19:30;;;;;;;;;;;18.90;64.90;;;;;;5100217;28;19916;-68
2022/08/08 01:22:02;;;;;;;;;;;18.90;64.90;;;;;;5101458;28;19928;-67
2022/08/08 01:24:43;;;;;;;;;;;18.90;65.10;;;;;;5095243;28;19922;-74
2022/08/08 01:27:11;;;;;;;;;;;18.80;65.20;;;;;;5104827;27;19922;-67
2022/08/08 01:29:40;;;;;;;;;;;18.80;65.30;;;;;;5104119;28;20180;-68
2022/08/08 01:32:24;;;;;;;;;;;18.70;65.40;;;;;;5110923;28;19912;-68
2022/08/08 01:34:52;;;;;;;;;;;18.70;65.50;;;;;;5109330;28;19915;-67
2022/08/08 01:37:27;;;;;;;;;;;18.60;65.60;;;;;;5113531;27;19916;-68
2022/08/08 01:40:00;;;;;;;;;;;18.60;65.60;;;;;;5101607;28;19916;-67
2022/08/08 01:42:26;;;;;;;;;;;18.70;65.70;;;;;;5100716;28;20347;-75
2022/08/08 01:45:18;;;;;;;;;;;18.60;65.70;;;;;;5108794;28;19919;-75
2022/08/08 01:47:52;;;;;;;;;;;18.60;65.80;;;;;;5085960;28;19923;-75
2022/08/08 01:50:25;;;;;;;;;;;18.60;66.10;;;;;;5109889;28;19920;-76
2022/08/08 01:53:06;;;;;;;;;;;18.60;66.20;;;;;;5105043;28;19920;-75
2022/08/08 01:55:40;;;;;;;;;;;18.50;66.20;;;;;;5105374;28;19955;-68
2022/08/08 01:58:06;;;;;;;;;;;18.50;66.10;;;;;;5104583;28;20375;-68
2022/08/08 02:00:37;;;;;;;;;;;18.50;66.10;;;;;;5107835;28;19922;-68
2022/08/08 02:03:24;;;;;;;;;;;18.50;66.10;;;;;;5111639;28;19922;-68
2022/08/08 02:05:58;;;;;;;;;;;18.40;66.20;;;;;;5104437;28;19976;-69
2022/08/08 02:08:37;;;;;;;;;;;18.40;66.40;;;;;;5103949;28;20278;-69
2022/08/08 02:11:24;;;;;;;;;;;18.40;66.60;;;;;;5109878;28;20332;-76
2022/08/08 02:13:58;;;;;;;;;;;18.30;66.60;;;;;;5106657;28;20350;-76
2022/08/08 02:16:33;;;;;;;;;;;18.30;66.70;;;;;;5110848;27;19919;-76
2022/08/08 02:19:23;;;;;;;;;;;18.30;66.80;;;;;;5107564;28;19943;-68
2022/08/08 02:24:50;;;;;;;;;;;18.30;66.80;;;;;;5105854;28;20215;-75
2022/08/08 02:27:17;;;;;;;;;;;18.20;66.80;;;;;;5111104;28;19922;-75
2022/08/08 02:29:50;;;;;;;;;;;18.20;66.90;;;;;;5106296;28;19916;-75
2022/08/08 02:32:22;;;;;;;;;;;18.20;67.50;;;;;;5105143;28;20494;-69
2022/08/08 02:34:57;;;;;;;;;;;18.10;67.50;;;;;;5099793;28;19915;-68
2022/08/08 02:37:29;;;;;;;;;;;18.10;67.50;;;;;;5104076;28;19916;-68
2022/08/08 02:40:24;;;;;;;;;;;18.10;67.30;;;;;;5111598;28;19987;-76
2022/08/08 02:43:09;;;;;;;;;;;18.00;67.20;;;;;;5083968;28;19912;-76
2022/08/08 02:45:54;;;;;;;;;;;18.00;67.30;;;;;;5104674;28;20359;-76
2022/08/08 02:48:19;;;;;;;;;;;18.00;67.30;;;;;;5101695;28;19919;-68
2022/08/08 02:50:48;;;;;;;;;;;18.00;68.00;;;;;;5108644;28;19920;-76
2022/08/08 02:53:25;;;;;;;;;;;18.00;67.40;;;;;;5108796;28;19916;-76
2022/08/08 02:56:02;;;;;;;;;;;18.00;67.50;;;;;;5108220;28;19930;-76
2022/08/08 02:58:46;;;;;;;;;;;18.00;67.40;;;;;;5104968;28;19915;-68
2022/08/08 03:01:14;;;;;;;;;;;17.90;67.40;;;;;;5108149;28;19916;-68
2022/08/08 03:03:52;;;;;;;;;;;17.90;67.70;;;;;;5101490;28;20571;-68
2022/08/08 03:06:30;;;;;;;;;;;17.90;67.80;;;;;;5104543;28;20016;-68
2022/08/08 03:09:14;;;;;;;;;;;17.90;67.90;;;;;;5108249;28;19987;-68
2022/08/08 03:11:51;;;;;;;;;;;17.80;68.00;;;;;;5097045;28;20382;-68
2022/08/08 03:14:20;;;;;;;;;;;17.80;67.90;;;;;;5105573;28;19920;-68
2022/08/08 03:16:50;;;;;;;;;;;17.80;67.80;;;;;;5101747;28;19912;-68
2022/08/08 03:19:34;;;;;;;;;;;17.80;67.90;;;;;;5088841;28;19962;-75
2022/08/08 03:21:59;;;;;;;;;;;17.80;67.90;;;;;;5106411;28;19919;-75
2022/08/08 03:24:25;;;;;;;;;;;17.80;68.00;;;;;;5110080;28;19971;-75
2022/08/08 03:26:53;;;;;;;;;;;17.80;67.90;;;;;;5110811;28;19916;-75
2022/08/08 03:29:20;;;;;;;;;;;17.70;68.10;;;;;;5106399;28;19915;-75
2022/08/08 03:34:34;;;;;;;;;;;17.70;68.20;;;;;;5111268;28;19919;-76
2022/08/08 03:36:59;;;;;;;;;;;17.60;68.20;;;;;;5107817;28;19926;-76
2022/08/08 03:39:25;;;;;;;;;;;17.60;68.30;;;;;;5105773;28;19920;-76
2022/08/08 03:41:50;;;;;;;;;;;17.60;68.40;;;;;;5099686;28;19965;-68
2022/08/08 03:44:16;;;;;;;;;;;17.60;68.50;;;;;;5102452;28;19915;-68
2022/08/08 03:46:46;;;;;;;;;;;17.60;68.50;;;;;;5095175;28;20429;-68
2022/08/08 03:49:19;;;;;;;;;;;17.60;68.50;;;;;;5103320;28;19920;-68
2022/08/08 03:51:45;;;;;;;;;;;17.60;68.50;;;;;;5089076;28;20763;-67
2022/08/08 03:54:11;;;;;;;;;;;17.60;68.60;;;;;;5097662;28;19916;-67
2022/08/08 03:56:36;;;;;;;;;;;17.60;68.70;;;;;;5096669;28;19970;-68
2022/08/08 03:59:02;;;;;;;;;;;17.50;68.80;;;;;;5080363;28;19920;-68
2022/08/08 04:01:34;;;;;;;;;;;17.50;68.80;;;;;;5087946;28;19951;-69
2022/08/08 04:04:00;;;;;;;;;;;17.60;68.90;;;;;;5074493;28;19969;-69
2022/08/08 04:06:27;;;;;;;;;;;17.50;69.00;;;;;;5061139;28;19932;-70
2022/08/08 04:08:52;;;;;;;;;;;17.60;69.10;;;;;;5087662;28;19916;-69
2022/08/08 04:11:18;;;;;;;;;;;17.60;69.20;;;;;;5086136;28;19947;-68
2022/08/08 04:13:43;;;;;;;;;;;17.50;69.20;;;;;;5095305;28;19916;-68
2022/08/08 04:16:09;;;;;;;;;;;17.50;69.10;;;;;;5078856;28;20002;-68
2022/08/08 04:18:34;;;;;;;;;;;17.50;69.20;;;;;;5093339;28;19944;-68
2022/08/08 04:21:00;;;;;;;;;;;17.50;69.40;;;;;;5080679;28;19931;-69
2022/08/08 04:23:25;;;;;;;;;;;17.50;69.50;;;;;;5099786;28;19916;-76
2022/08/08 04:25:51;;;;;;;;;;;17.60;69.50;;;;;;5107568;28;19920;-69
2022/08/08 04:28:17;;;;;;;;;;;17.60;69.50;;;;;;5104149;28;19951;-68
2022/08/08 04:30:42;;;;;;;;;;;17.60;69.60;;;;;;5108567;28;19920;-76
2022/08/08 04:33:08;;;;;;;;;;;17.60;69.50;;;;;;5092706;28;20334;-75
2022/08/08 04:35:33;;;;;;;;;;;17.60;69.60;;;;;;5106795;28;19947;-76
2022/08/08 04:37:59;;;;;;;;;;;17.60;69.50;;;;;;5095118;28;19939;-76
2022/08/08 04:40:24;;;;;;;;;;;17.60;69.60;;;;;;5101173;28;19916;-76
2022/08/08 04:42:51;;;;;;;;;;;17.60;69.60;;;;;;5102550;28;20006;-76
2022/08/08 04:45:16;;;;;;;;;;;17.60;69.90;;;;;;5107098;28;19927;-76
2022/08/08 04:47:42;;;;;;;;;;;17.60;70.00;;;;;;5104799;28;19920;-76
2022/08/08 04:50:07;;;;;;;;;;;17.60;69.90;;;;;;5104653;28;20022;-76
2022/08/08 04:52:33;;;;;;;;;;;17.60;70.00;;;;;;5103644;28;19919;-76
2022/08/08 04:54:59;;;;;;;;;;;17.70;70.10;;;;;;5104841;28;19959;-76
2022/08/08 04:57:24;;;;;;;;;;;17.70;69.90;;;;;;5105095;28;19960;-76
2022/08/08 04:59:50;;;;;;;;;;;17.70;70.10;;;;;;5104055;28;20000;-76
2022/08/08 05:02:16;;;;;;;;;;;17.70;70.20;;;;;;5100211;28;19912;-76
2022/08/08 05:04:41;;;;;;;;;;;17.70;70.30;;;;;;5105120;28;20367;-68
2022/08/08 05:07:07;;;;;;;;;;;17.70;70.20;;;;;;5101800;28;19976;-68
2022/08/08 05:09:33;;;;;;;;;;;17.80;70.10;;;;;;5107264;28;20064;-69
2022/08/08 05:11:59;;;;;;;;;;;17.90;70.10;;;;;;5097428;28;19935;-69
2022/08/08 05:14:24;;;;;;;;;;;17.90;70.00;;;;;;5100594;28;19924;-69
2022/08/08 05:16:50;;;;;;;;;;;18.00;69.90;;;;;;5101669;28;20381;-69
2022/08/08 05:19:16;;;;;;;;;;;18.00;69.90;;;;;;5106204;28;19943;-78
2022/08/08 05:21:43;;;;;;;;;;;18.00;70.10;;;;;;5103155;28;19927;-77
2022/08/08 05:24:09;;;;;;;;;;;18.10;70.10;;;;;;5105683;28;20377;-77
2022/08/08 05:26:35;;;;;;;;;;;18.10;70.00;;;;;;5109897;28;20374;-76
2022/08/08 05:29:02;;;;;;;;;;;18.20;70.00;;;;;;5108597;28;19919;-77
2022/08/08 05:31:29;;;;;;;;;;;18.20;70.00;;;;;;5096781;28;19915;-76
2022/08/08 05:33:54;;;;;;;;;;;18.20;69.90;;;;;;5108336;28;19915;-68
2022/08/08 05:36:22;;;;;;;;;;;18.30;70.00;;;;;;5106004;28;19920;-68
2022/08/08 05:38:49;;;;;;;;;;;18.30;69.90;;;;;;5108573;28;19916;-68
2022/08/08 05:41:17;;;;;;;;;;;18.40;69.70;;;;;;5106469;28;19912;-69
2022/08/08 05:43:45;;;;;;;;;;;18.40;69.50;;;;;;5104624;28;19920;-68
2022/08/08 05:46:10;;;;;;;;;;;18.50;69.30;;;;;;5102608;28;20298;-69
2022/08/08 05:48:36;;;;;;;;;;;18.50;69.50;;;;;;5095338;28;19912;-76
2022/08/08 05:51:02;;;;;;;;;;;18.60;69.20;;;;;;5109471;28;19912;-77
2022/08/08 05:53:31;;;;;;;;;;;18.70;69.10;;;;;;5109461;28;20004;-77
2022/08/08 05:55:57;;;;;;;;;;;18.70;69.00;;;;;;5104091;28;19923;-70
2022/08/08 05:58:28;;;;;;;;;;;18.80;68.90;;;;;;5103428;28;20384;-69
2022/08/08 06:01:00;;;;;;;;;;;18.90;69.40;;;;;;5102881;28;20341;-73
2022/08/08 06:03:27;;;;;;;;;;;18.90;68.70;;;;;;5094422;27;19923;-69
2022/08/08 06:05:54;;;;;;;;;;;19.00;68.70;;;;;;5103174;28;19930;-76
2022/08/08 06:08:31;;;;;;;;;;;19.00;68.50;;;;;;5107194;28;19920;-76
2022/08/08 06:10:57;;;;;;;;;;;19.10;68.30;;;;;;5109769;28;19962;-76
2022/08/08 06:13:24;;;;;;;;;;;19.20;68.50;;;;;;5097422;28;20427;-69
2022/08/08 06:15:50;;;;;;;;;;;19.20;68.40;;;;;;5109947;28;20378;-68
2022/08/08 06:18:16;;;;;;;;;;;19.30;68.40;;;;;;5110031;28;19912;-69
2022/08/08 06:20:43;;;;;;;;;;;19.30;68.30;;;;;;5107673;28;19922;-74
2022/08/08 06:23:08;;;;;;;;;;;19.40;68.30;;;;;;5111799;28;19916;-74
2022/08/08 06:25:35;;;;;;;;;;;19.40;68.10;;;;;;5108692;28;19924;-68
2022/08/08 06:28:02;;;;;;;;;;;19.50;68.10;;;;;;5105461;28;20378;-68
2022/08/08 06:30:29;;;;;;;;;;;19.50;67.90;;;;;;5105183;28;20381;-69
2022/08/08 06:32:55;;;;;;;;;;;19.60;67.80;;;;;;5108837;28;19916;-68
2022/08/08 06:35:22;;;;;;;;;;;19.70;67.70;;;;;;5095091;28;19959;-67
2022/08/08 06:37:49;;;;;;;;;;;19.70;67.50;;;;;;5103920;28;19923;-69
2022/08/08 06:40:15;;;;;;;;;;;19.80;67.30;;;;;;5108885;28;20429;-68
2022/08/08 06:42:52;;;;;;;;;;;19.90;67.00;;;;;;5110565;28;20336;-68
2022/08/08 06:45:18;;;;;;;;;;;19.90;66.90;;;;;;5103771;28;19916;-68
2022/08/08 06:47:44;;;;;;;;;;;20.00;66.80;;;;;;5089152;28;19923;-69
2022/08/08 06:50:10;;;;;;;;;;;20.10;66.60;;;;;;5111459;28;19924;-74
2022/08/08 06:52:36;;;;;;;;;;;20.20;66.40;;;;;;5110258;28;19993;-74
2022/08/08 06:55:04;;;;;;;;;;;20.20;66.10;;;;;;5109846;27;19920;-75
2022/08/08 06:57:30;;;;;;;;;;;20.30;66.00;;;;;;5096868;28;20049;-69
2022/08/08 06:59:55;;;;;;;;;;;20.40;65.80;;;;;;5111286;28;19915;-68
2022/08/08 07:02:24;;;;;;;;;;;20.50;65.60;;;;;;5109385;28;19920;-69
2022/08/08 07:04:54;;;;;;;;;;;20.50;65.30;;;;;;5111122;28;19912;-69
2022/08/08 07:07:32;;;;;;;;;;;20.50;65.10;;;;;;5106725;28;20762;-69
2022/08/08 07:10:03;;;;;;;;;;;20.60;65.00;;;;;;5106982;28;20381;-69
2022/08/08 07:12:51;;;;;;;;;;;20.70;64.90;;;;;;5105521;28;19912;-69
2022/08/08 07:15:19;;;;;;;;;;;20.70;64.60;;;;;;5109932;28;19969;-76
2022/08/08 07:17:46;;;;;;;;;;;20.80;64.40;;;;;;5106449;28;19916;-76
2022/08/08 07:20:16;;;;;;;;;;;20.90;64.20;;;;;;5094538;28;19912;-75
2022/08/08 07:22:52;;;;;;;;;;;21.00;64.00;;;;;;5096415;28;19911;-67
2022/08/08 07:25:19;;;;;;;;;;;21.10;63.70;;;;;;5096541;28;19916;-74
2022/08/08 07:27:46;;;;;;;;;;;21.20;63.30;;;;;;5097751;28;19923;-75
2022/08/08 07:30:12;;;;;;;;;;;21.20;62.90;;;;;;5091279;28;19963;-74
2022/08/08 07:32:38;;;;;;;;;;;21.30;62.80;;;;;;5093886;28;19943;-75
2022/08/08 07:35:04;;;;;;;;;;;21.30;62.50;;;;;;5093972;28;19971;-76
2022/08/08 07:37:30;;;;;;;;;;;21.40;62.20;;;;;;5094304;28;20034;-76
2022/08/08 07:39:57;;;;;;;;;;;21.50;62.10;;;;;;5094013;28;20490;-76
2022/08/08 07:42:23;;;;;;;;;;;21.60;61.80;;;;;;5092040;28;19959;-76
2022/08/08 07:44:49;;;;;;;;;;;21.70;61.50;;;;;;5094917;27;19916;-75
2022/08/08 07:47:14;;;;;;;;;;;21.70;61.20;;;;;;5097996;28;20019;-75
2022/08/08 07:49:40;;;;;;;;;;;21.80;61.20;;;;;;5089278;28;20008;-76
2022/08/08 07:52:07;;;;;;;;;;;21.90;60.80;;;;;;5078245;28;19924;-75
2022/08/08 07:54:39;;;;;;;;;;;22.00;60.60;;;;;;5078321;28;20625;-75
2022/08/08 07:57:19;;;;;;;;;;;22.10;60.30;;;;;;5080720;28;19998;-68
2022/08/08 07:59:52;;;;;;;;;;;22.20;60.10;;;;;;5083477;28;19920;-68
2022/08/08 08:02:22;;;;;;;;;;;22.30;59.60;;;;;;5088193;28;19923;-68
2022/08/08 08:04:50;;;;;;;;;;;22.30;59.20;;;;;;5082083;28;19920;-68
2022/08/08 08:07:17;;;;;;;;;;;22.30;59.00;;;;;;5083733;28;19971;-69
2022/08/08 08:09:43;;;;;;;;;;;22.40;59.00;;;;;;5080266;28;20416;-69
2022/08/08 08:12:10;;;;;;;;;;;22.50;58.90;;;;;;5081536;28;20016;-69
2022/08/08 08:14:42;;;;;;;;;;;22.60;58.90;;;;;;5089111;28;20770;-69
2022/08/08 08:17:08;;;;;;;;;;;22.70;58.80;;;;;;5096216;27;19916;-69
2022/08/08 08:19:35;;;;;;;;;;;22.80;58.40;;;;;;5083947;28;19935;-69
2022/08/08 08:22:01;;;;;;;;;;;22.90;57.60;;;;;;5098791;28;19916;-68
2022/08/08 08:24:26;;;;;;;;;;;22.90;57.50;;;;;;5060056;28;20007;-74
2022/08/08 08:26:52;;;;;;;;;;;23.10;57.60;;;;;;5084051;28;19919;-75
2022/08/08 08:29:18;;;;;;;;;;;23.20;57.40;;;;;;5078628;28;19953;-75
2022/08/08 08:31:43;;;;;;;;;;;23.30;56.40;;;;;;5083872;28;19912;-75
2022/08/08 08:34:09;;;;;;;;;;;23.30;56.10;;;;;;5088580;28;20005;-75
2022/08/08 08:36:34;;;;;;;;;;;23.30;55.40;;;;;;5078113;28;19916;-75
2022/08/08 08:39:00;;;;;;;;;;;23.30;55.30;;;;;;5079076;28;19920;-75
2022/08/08 08:41:27;;;;;;;;;;;23.40;55.30;;;;;;5087077;28;20026;-75
2022/08/08 08:43:52;;;;;;;;;;;23.40;55.20;;;;;;5083806;28;19920;-75
2022/08/08 08:46:18;;;;;;;;;;;23.50;55.30;;;;;;5085331;28;19923;-75
2022/08/08 08:48:44;;;;;;;;;;;23.60;55.20;;;;;;5087663;28;19918;-75
2022/08/08 08:51:11;;;;;;;;;;;23.80;55.70;;;;;;5084469;28;20794;-75
2022/08/08 08:53:41;;;;;;;;;;;23.90;54.60;;;;;;5089100;28;19915;-75
2022/08/08 08:56:07;;;;;;;;;;;24.00;54.20;;;;;;5083565;28;19916;-75
2022/08/08 08:58:34;;;;;;;;;;;24.10;54.20;;;;;;5080236;28;20302;-75
2022/08/08 09:01:00;;;;;;;;;;;24.10;53.30;;;;;;5083839;28;19924;-75
2022/08/08 09:03:26;;;;;;;;;;;24.00;53.30;;;;;;5087220;28;19912;-75
2022/08/08 09:05:52;;;;;;;;;;;24.10;53.40;;;;;;5086102;28;19954;-75
2022/08/08 09:08:19;;;;;;;;;;;24.20;52.70;;;;;;5069842;28;19915;-75
2022/08/08 09:10:45;;;;;;;;;;;24.20;52.00;;;;;;5085114;28;20381;-75
2022/08/08 09:13:11;;;;;;;;;;;24.00;52.20;;;;;;5082055;28;19924;-75
2022/08/08 09:15:37;;;;;;;;;;;23.90;52.60;;;;;;5082975;28;19916;-75
2022/08/08 09:18:02;;;;;;;;;;;23.70;52.20;;;;;;5087914;28;20389;-75
2022/08/08 09:20:28;;;;;;;;;;;23.50;52.40;;;;;;5085436;28;19939;-75
2022/08/08 09:22:54;;;;;;;;;;;23.50;53.30;;;;;;5090093;28;20006;-75
2022/08/08 09:25:21;;;;;;;;;;;23.60;52.80;;;;;;5085032;28;20423;-75
2022/08/08 09:27:46;;;;;;;;;;;23.70;52.70;;;;;;5081000;28;19990;-74
2022/08/08 09:30:13;;;;;;;;;;;24.00;52.60;;;;;;5084614;28;20027;-68
2022/08/08 09:32:42;;;;;;;;;;;24.40;51.90;;;;;;5079160;28;19915;-68
2022/08/08 09:35:09;;;;;;;;;;;24.70;50.90;;;;;;5082606;28;19916;-69
2022/08/08 09:37:48;;;;;;;;;;;25.00;50.20;;;;;;5083458;28;19908;-69
2022/08/08 09:40:15;;;;;;;;;;;25.10;50.20;;;;;;5082213;28;19920;-68
2022/08/08 09:42:42;;;;;;;;;;;25.20;50.00;;;;;;5085149;28;19916;-68
2022/08/08 09:45:11;;;;;;;;;;;25.30;49.40;;;;;;5086381;28;19923;-68
2022/08/08 09:47:38;;;;;;;;;;;25.30;49.60;;;;;;5084546;28;19916;-68
2022/08/08 09:50:11;;;;;;;;;;;25.50;49.60;;;;;;5087167;28;19995;-68
2022/08/08 09:52:39;;;;;;;;;;;25.80;49.50;;;;;;5096183;28;20094;-68
2022/08/08 09:55:04;;;;;;;;;;;26.10;48.60;;;;;;5087349;28;19913;-68
2022/08/08 09:57:32;;;;;;;;;;;26.10;48.60;;;;;;5089258;28;19922;-73
2022/08/08 09:59:58;;;;;;;;;;;26.00;48.80;;;;;;5089510;28;20029;-67
2022/08/08 10:02:29;;;;;;;;;;;25.90;49.00;;;;;;5091655;28;19912;-72
2022/08/08 10:05:01;;;;;;;;;;;25.80;49.20;;;;;;5088226;28;20584;-73
2022/08/08 10:07:27;;;;;;;;;;;25.70;49.10;;;;;;5087691;28;19964;-68
2022/08/08 10:09:52;;;;;;;;;;;25.60;48.80;;;;;;5086462;28;19965;-67
2022/08/08 10:12:18;;;;;;;;;;;25.40;49.00;;;;;;5094407;28;19966;-72
2022/08/08 10:14:44;;;;;;;;;;;25.30;49.10;;;;;;5091580;28;19920;-73
2022/08/08 10:17:09;;;;;;;;;;;25.40;49.20;;;;;;5091572;28;19920;-67
2022/08/08 10:19:36;;;;;;;;;;;25.50;49.30;;;;;;5088410;28;19916;-68
2022/08/08 10:22:03;;;;;;;;;;;25.70;48.80;;;;;;5081998;28;19920;-65
2022/08/08 10:24:29;;;;;;;;;;;25.90;48.40;;;;;;5085727;28;20385;-63
2022/08/08 10:27:04;;;;;;;;;;;25.90;48.20;;;;;;5088653;28;19972;-67
2022/08/08 10:29:36;;;;;;;;;;;25.90;48.00;;;;;;5092076;28;20649;-68
2022/08/08 10:34:50;;;;;;;;;;;25.60;48.00;;;;;;5095829;28;19923;-61
2022/08/08 10:37:27;;;;;;;;;;;25.50;48.20;;;;;;5100589;28;19918;-62
2022/08/08 10:39:53;;;;;;;;;;;25.50;48.40;;;;;;5084376;28;20027;-62
2022/08/08 10:42:19;;;;;;;;;;;25.50;48.60;;;;;;5082910;28;19917;-62
2022/08/08 10:44:45;;;;;;;;;;;25.60;48.30;;;;;;5082499;28;19924;-62
2022/08/08 10:47:17;;;;;;;;;;;25.80;47.90;;;;;;5089256;28;19974;-61
2022/08/08 10:49:50;;;;;;;;;;;25.80;47.50;;;;;;5087419;28;19920;-61
2022/08/08 10:52:25;;;;;;;;;;;25.70;47.60;;;;;;5085304;28;19917;-67
2022/08/08 10:54:55;;;;;;;;;;;25.60;47.60;;;;;;5085193;28;19947;-67
2022/08/08 10:57:21;;;;;;;;;;;25.60;47.70;;;;;;5083028;28;19939;-67
2022/08/08 10:59:50;;;;;;;;;;;25.60;47.60;;;;;;5082025;28;20287;-68
2022/08/08 11:02:26;;;;;;;;;;;25.60;47.60;;;;;;5085486;28;20196;-68
2022/08/08 11:04:52;;;;;;;;;;;25.60;47.80;;;;;;5083124;28;19952;-68
2022/08/08 11:07:38;;;;;;;;;;;25.80;47.50;;;;;;5085972;28;19969;-62
2022/08/08 11:10:05;;;;;;;;;;;25.90;46.60;;;;;;5082405;28;19912;-68
2022/08/08 11:12:43;;;;;;;;;;;26.00;46.40;;;;;;5085164;28;19923;-62
2022/08/08 11:15:11;;;;;;;;;;;25.90;46.50;;;;;;5088143;28;19924;-63
2022/08/08 11:17:37;;;;;;;;;;;25.90;46.80;;;;;;5089616;28;20035;-68
2022/08/08 11:20:03;;;;;;;;;;;25.80;46.90;;;;;;5081909;28;19920;-68
2022/08/08 11:22:29;;;;;;;;;;;25.80;47.20;;;;;;5095859;28;20382;-68
2022/08/08 11:24:59;;;;;;;;;;;25.70;47.20;;;;;;5085078;28;19924;-68
2022/08/08 11:27:27;;;;;;;;;;;25.80;47.40;;;;;;5088365;28;19916;-62
2022/08/08 11:29:54;;;;;;;;;;;25.80;47.40;;;;;;5082479;28;19939;-62
2022/08/08 11:32:23;;;;;;;;;;;25.90;47.40;;;;;;5091276;28;19920;-62
2022/08/08 11:34:54;;;;;;;;;;;25.90;47.40;;;;;;5088134;28;20379;-63
2022/08/08 11:37:21;;;;;;;;;;;26.00;47.20;;;;;;5081364;28;19951;-67
2022/08/08 11:39:46;;;;;;;;;;;26.10;47.40;;;;;;5092902;28;20008;-63
2022/08/08 11:42:13;;;;;;;;;;;26.40;47.30;;;;;;5091631;28;20021;-68
2022/08/08 11:44:39;;;;;;;;;;;27.00;46.70;;;;;;5098289;28;19974;-62
2022/08/08 11:47:05;;;;;;;;;;;27.50;45.50;;;;;;5089632;28;20050;-68
2022/08/08 11:49:31;;;;;;;;;;;27.60;45.00;;;;;;5093749;28;20359;-68
2022/08/08 11:51:56;;;;;;;;;;;27.50;45.00;;;;;;5096003;28;19993;-68
2022/08/08 11:54:32;;;;;;;;;;;27.20;45.00;;;;;;5093085;28;19920;-68
2022/08/08 11:57:08;;;;;;;;;;;27.00;45.40;;;;;;5090800;28;19928;-62
2022/08/08 11:59:34;;;;;;;;;;;26.90;45.70;;;;;;5097574;28;20636;-68
2022/08/08 12:02:06;;;;;;;;;;;26.80;45.80;;;;;;5101528;28;19920;-68
2022/08/08 12:04:31;;;;;;;;;;;27.00;45.40;;;;;;5101933;28;19923;-68
2022/08/08 12:07:04;;;;;;;;;;;27.10;45.00;;;;;;5089342;28;19928;-62
2022/08/08 12:09:31;;;;;;;;;;;27.10;44.70;;;;;;5095293;28;20575;-63
2022/08/08 12:11:57;;;;;;;;;;;27.20;45.20;;;;;;5091326;28;19923;-62
2022/08/08 12:14:23;;;;;;;;;;;27.40;44.20;;;;;;5092318;28;19920;-68
2022/08/08 12:16:51;;;;;;;;;;;27.80;43.10;;;;;;5090742;28;20379;-63
2022/08/08 12:19:17;;;;;;;;;;;28.20;42.70;;;;;;5097402;28;20316;-68
2022/08/08 12:21:42;;;;;;;;;;;28.60;41.40;;;;;;5089090;28;20034;-62
2022/08/08 12:24:12;;;;;;;;;;;29.10;41.30;;;;;;5096731;28;19926;-68
2022/08/08 12:26:47;;;;;;;;;;;29.40;41.10;;;;;;5090030;28;19982;-61
2022/08/08 12:29:20;;;;;;;;;;;29.30;41.10;;;;;;5089173;28;19923;-61
2022/08/08 12:31:46;;;;;;;;;;;29.00;41.30;;;;;;5079642;28;20362;-62
2022/08/08 12:34:12;;;;;;;;;;;28.70;41.80;;;;;;5095151;28;19916;-61
2022/08/08 12:36:41;;;;;;;;;;;28.30;42.00;;;;;;5093374;28;19920;-63
2022/08/08 12:39:07;;;;;;;;;;;28.10;42.20;;;;;;5089396;28;19912;-67
2022/08/08 12:41:35;;;;;;;;;;;28.00;42.60;;;;;;5086348;28;20776;-67
2022/08/08 12:44:13;;;;;;;;;;;28.00;42.10;;;;;;5079791;28;19916;-67
2022/08/08 12:46:38;;;;;;;;;;;28.10;42.30;;;;;;5088666;28;20318;-68
2022/08/08 12:49:04;;;;;;;;;;;28.10;42.30;;;;;;5079845;28;19955;-63
2022/08/08 12:51:41;;;;;;;;;;;28.30;41.50;;;;;;5093793;28;19974;-61
2022/08/08 12:54:07;;;;;;;;;;;28.40;41.20;;;;;;5086515;28;19912;-63
2022/08/08 12:56:36;;;;;;;;;;;28.30;41.20;;;;;;5083881;28;19924;-63
2022/08/08 12:59:12;;;;;;;;;;;28.30;41.20;;;;;;5088592;28;19970;-67
2022/08/08 13:01:38;;;;;;;;;;;28.20;41.30;;;;;;5088533;28;19915;-67
2022/08/08 13:04:13;;;;;;;;;;;28.20;41.50;;;;;;5080235;28;19916;-66
2022/08/08 13:06:50;;;;;;;;;;;28.30;41.40;;;;;;5083344;28;20355;-62
2022/08/08 13:09:16;;;;;;;;;;;28.40;41.50;;;;;;5088224;28;19908;-67
2022/08/08 13:11:51;;;;;;;;;;;28.40;41.40;;;;;;5087621;28;19927;-67
2022/08/08 13:14:17;;;;;;;;;;;28.60;41.50;;;;;;5084097;28;19955;-68
2022/08/08 13:16:42;;;;;;;;;;;29.10;41.00;;;;;;5085703;28;19952;-68
2022/08/08 13:19:09;;;;;;;;;;;29.50;40.50;;;;;;5080466;28;19917;-62
2022/08/08 13:21:44;;;;;;;;;;;29.60;40.00;;;;;;5086065;28;19908;-62
2022/08/08 13:24:09;;;;;;;;;;;29.40;39.80;;;;;;5085931;28;19924;-62
2022/08/08 13:26:35;;;;;;;;;;;29.10;40.20;;;;;;5092262;28;20425;-62
2022/08/08 13:29:08;;;;;;;;;;;28.80;40.10;;;;;;5087752;28;19979;-62
2022/08/08 13:31:33;;;;;;;;;;;28.60;40.50;;;;;;5087718;28;19912;-62
2022/08/08 13:33:59;;;;;;;;;;;28.60;40.30;;;;;;5096906;28;19923;-62
2022/08/08 13:36:24;;;;;;;;;;;28.80;40.60;;;;;;5087033;28;19962;-63
2022/08/08 13:38:50;;;;;;;;;;;29.30;40.10;;;;;;5089088;28;20012;-67
2022/08/08 13:41:15;;;;;;;;;;;29.80;39.80;;;;;;5089969;28;19919;-68
2022/08/08 13:43:42;;;;;;;;;;;30.20;39.30;;;;;;5090230;28;20018;-67
2022/08/08 13:46:08;;;;;;;;;;;30.70;39.30;;;;;;5085787;28;19920;-68
2022/08/08 13:48:44;;;;;;;;;;;31.10;38.10;;;;;;5086696;28;19944;-67
2022/08/08 13:51:10;;;;;;;;;;;31.30;37.40;;;;;;5099485;28;20282;-67
2022/08/08 13:53:39;;;;;;;;;;;31.50;37.10;;;;;;5088901;28;19912;-63
2022/08/08 13:56:06;;;;;;;;;;;31.60;36.90;;;;;;5089372;28;19928;-62
2022/08/08 13:58:33;;;;;;;;;;;31.70;37.10;;;;;;5076143;28;19916;-67
2022/08/08 14:01:14;;;;;;;;;;;31.70;37.00;;;;;;5084000;28;20739;-62
2022/08/08 14:03:49;;;;;;;;;;;31.40;36.80;;;;;;5088114;28;20312;-67
2022/08/08 14:06:15;;;;;;;;;;;30.90;36.70;;;;;;5093889;28;19918;-63
2022/08/08 14:08:44;;;;;;;;;;;30.40;37.30;;;;;;5088262;28;19916;-62
2022/08/08 14:11:17;;;;;;;;;;;30.10;38.00;;;;;;5091359;28;19923;-67
2022/08/08 14:13:43;;;;;;;;;;;30.30;38.40;;;;;;5082746;28;20438;-67
2022/08/08 14:16:08;;;;;;;;;;;30.40;38.10;;;;;;5090225;28;19912;-67
2022/08/08 14:18:34;;;;;;;;;;;30.60;38.20;;;;;;5092749;28;19961;-67
2022/08/08 14:21:01;;;;;;;;;;;31.00;38.00;;;;;;5090298;28;19923;-63
2022/08/08 14:23:27;;;;;;;;;;;31.30;37.30;;;;;;5088242;28;19919;-67
2022/08/08 14:25:53;;;;;;;;;;;31.50;37.00;;;;;;5088000;28;19969;-68
2022/08/08 14:28:19;;;;;;;;;;;31.20;36.90;;;;;;5087336;28;19917;-63
2022/08/08 14:30:45;;;;;;;;;;;30.70;37.60;;;;;;5089139;28;19916;-62
2022/08/08 14:33:11;;;;;;;;;;;30.20;38.10;;;;;;5082663;28;19912;-62
2022/08/08 14:35:37;;;;;;;;;;;29.80;38.70;;;;;;5092170;28;19913;-62